createdAt,value
2023-01-17T00:00:21.868Z,13.18
2023-01-17T00:03:25.854Z,3.28
2023-01-17T00:06:47.972Z,6.72
2023-01-17T00:09:54.631Z,15.07
2023-01-17T00:13:00.603Z,12.85
2023-01-17T00:16:04.573Z,17.70
2023-01-17T00:19:26.485Z,8.50
2023-01-17T00:22:53.379Z,10.68
2023-01-17T00:26:06.286Z,10.38
2023-01-17T00:29:10.127Z,5.38
2023-01-17T00:32:13.931Z,6.93
2023-01-17T00:35:18.200Z,5.78
2023-01-17T00:38:24.070Z,12.00
2023-01-17T00:41:29.438Z,7.90
2023-01-17T00:44:50.833Z,8.85
2023-01-17T00:48:13.247Z,7.75
2023-01-17T00:51:35.550Z,14.63
2023-01-17T00:54:57.046Z,29.83
2023-01-17T00:58:25.139Z,15.40
2023-01-17T01:01:47.247Z,8.20
2023-01-17T01:05:09.109Z,12.15
2023-01-17T01:08:40.053Z,10.23
2023-01-17T01:12:01.796Z,12.27
2023-01-17T01:15:24.336Z,9.73
2023-01-17T01:18:46.806Z,9.65
2023-01-17T01:22:09.115Z,4.22
2023-01-17T01:25:31.661Z,7.50
2023-01-17T01:28:53.645Z,12.32
2023-01-17T01:32:15.364Z,7.55
2023-01-17T01:35:18.516Z,30.42
2023-01-17T01:38:24.396Z,21.50
2023-01-17T01:41:27.393Z,26.13
2023-01-17T01:44:51.983Z,22.23
2023-01-17T01:48:12.470Z,28.07
2023-01-17T01:51:21.432Z,35.40
2023-01-17T01:54:32.001Z,101.20
2023-01-17T01:57:50.401Z,38.40
2023-01-17T02:00:54.122Z,108.65
2023-01-17T02:03:58.319Z,107.05
2023-01-17T02:07:08.876Z,105.43
2023-01-17T02:10:13.668Z,35.72
2023-01-17T02:13:19.860Z,79.88
2023-01-17T02:16:51.569Z,88.53
2023-01-17T02:20:13.028Z,92.33
2023-01-17T02:23:55.019Z,56.90
2023-01-17T02:27:19.113Z,69.55
2023-01-17T02:30:41.971Z,87.67
2023-01-17T02:33:59.609Z,59.95
2023-01-17T02:37:19.687Z,92.03
2023-01-17T02:40:31.450Z,44.60
2023-01-17T02:43:38.171Z,92.65
2023-01-17T02:46:50.066Z,70.05
2023-01-17T02:50:02.064Z,54.90
2023-01-17T02:53:47.945Z,14.87
2023-01-17T02:57:16.159Z,57.00
2023-01-17T03:00:27.965Z,56.53
2023-01-17T03:03:40.810Z,43.97
2023-01-17T03:06:58.705Z,42.15
2023-01-17T03:10:05.551Z,43.40
2023-01-17T03:13:09.377Z,22.27
2023-01-17T03:16:21.718Z,26.65
2023-01-17T03:19:25.086Z,33.65
2023-01-17T03:22:28.143Z,13.23
2023-01-17T03:25:32.239Z,39.93
2023-01-17T03:28:35.729Z,29.30
2023-01-17T03:31:39.818Z,39.60
2023-01-17T03:34:43.427Z,39.60
2023-01-17T03:37:47.366Z,40.58
2023-01-17T03:40:50.860Z,46.28
2023-01-17T03:43:54.177Z,33.92
2023-01-17T03:46:57.243Z,53.42
2023-01-17T03:50:01.207Z,52.67
2023-01-17T03:53:04.445Z,72.78
2023-01-17T03:56:08.689Z,51.27
2023-01-17T03:59:13.152Z,55.75
2023-01-17T04:02:17.073Z,52.97
2023-01-17T04:05:20.761Z,54.97
2023-01-17T04:08:24.040Z,50.00
2023-01-17T04:11:26.903Z,43.08
2023-01-17T04:14:31.100Z,29.58
2023-01-17T04:17:34.783Z,40.70
2023-01-17T04:20:40.144Z,48.35
2023-01-17T04:23:43.844Z,45.42
2023-01-17T04:26:48.002Z,19.67
2023-01-17T04:29:51.984Z,34.63
2023-01-17T04:32:56.423Z,24.95
2023-01-17T04:36:00.640Z,34.20
2023-01-17T04:39:04.460Z,19.55
2023-01-17T04:42:10.036Z,11.50
2023-01-17T04:45:14.297Z,21.38
2023-01-17T04:48:17.676Z,18.48
2023-01-17T04:51:21.360Z,21.90
2023-01-17T04:54:25.513Z,16.83
2023-01-17T04:57:28.539Z,12.67
2023-01-17T05:00:31.794Z,26.85
2023-01-17T05:03:36.370Z,13.75
2023-01-17T05:06:40.378Z,8.93
2023-01-17T05:09:44.503Z,11.30
2023-01-17T05:12:59.157Z,7.97
2023-01-17T05:16:02.765Z,6.75
2023-01-17T05:19:06.732Z,9.35
2023-01-17T05:22:15.983Z,17.05
2023-01-17T05:25:19.545Z,16.42
2023-01-17T05:28:23.204Z,13.67
2023-01-17T05:31:27.251Z,10.57
2023-01-17T05:34:32.376Z,12.80
2023-01-17T05:37:36.464Z,12.10
2023-01-17T05:40:39.922Z,11.38
2023-01-17T05:43:44.105Z,8.48
2023-01-17T05:46:47.746Z,9.32
2023-01-17T05:49:51.059Z,8.80
2023-01-17T05:52:59.612Z,10.20
2023-01-17T05:56:03.602Z,20.30
2023-01-17T05:59:07.176Z,12.77
2023-01-17T06:02:11.205Z,15.70
2023-01-17T06:05:16.260Z,18.15
2023-01-17T06:08:19.638Z,8.53
2023-01-17T06:11:22.967Z,10.15
2023-01-17T06:14:26.919Z,13.70
2023-01-17T06:17:29.799Z,23.35
2023-01-17T06:20:34.271Z,13.43
2023-01-17T06:23:37.157Z,6.30
2023-01-17T06:26:41.134Z,9.35
2023-01-17T06:29:44.752Z,7.67
2023-01-17T06:32:57.135Z,20.05
2023-01-17T06:36:00.130Z,12.35
2023-01-17T06:39:03.332Z,20.67
2023-01-17T06:42:06.600Z,9.43
2023-01-17T06:45:11.110Z,6.18
2023-01-17T06:48:14.051Z,9.82
2023-01-17T06:51:18.237Z,9.63
2023-01-17T06:54:21.193Z,13.20
2023-01-17T06:57:24.580Z,11.25
2023-01-17T07:00:29.447Z,15.70
2023-01-17T07:03:33.714Z,8.77
2023-01-17T07:06:38.048Z,5.63
2023-01-17T07:09:41.957Z,5.33
2023-01-17T07:12:44.906Z,6.90
2023-01-17T07:15:48.197Z,6.75
2023-01-17T07:18:52.354Z,9.88
2023-01-17T07:21:56.195Z,5.78
2023-01-17T07:24:59.152Z,11.30
2023-01-17T07:28:02.436Z,11.05
2023-01-17T07:31:08.870Z,12.23
2023-01-17T07:34:12.688Z,14.82
2023-01-17T07:37:15.983Z,16.13
2023-01-17T07:40:20.829Z,13.17
2023-01-17T07:43:24.441Z,15.20
2023-01-17T07:46:29.759Z,10.75
2023-01-17T07:49:32.789Z,13.45
2023-01-17T07:52:36.095Z,11.77
2023-01-17T07:55:40.873Z,22.00
2023-01-17T07:58:44.188Z,10.93
2023-01-17T08:01:48.045Z,12.10
2023-01-17T08:04:51.574Z,14.20
2023-01-17T08:07:54.972Z,14.55
2023-01-17T08:10:58.666Z,23.10
2023-01-17T08:14:02.006Z,29.48
2023-01-17T08:17:13.655Z,20.50
2023-01-17T08:20:17.697Z,15.60
2023-01-17T08:23:21.507Z,14.57
2023-01-17T08:26:25.383Z,13.63
2023-01-17T08:29:28.575Z,13.43
2023-01-17T08:32:33.419Z,9.57
2023-01-17T08:35:36.508Z,17.23
2023-01-17T08:38:39.724Z,21.60
2023-01-17T08:41:42.600Z,13.30
2023-01-17T08:44:45.911Z,12.35
2023-01-17T08:47:51.740Z,12.82
2023-01-17T08:50:55.056Z,16.00
2023-01-17T08:53:59.086Z,14.00
2023-01-17T08:57:04.467Z,15.65
2023-01-17T09:00:09.615Z,15.15
2023-01-17T09:03:14.913Z,7.80
2023-01-17T09:06:18.739Z,7.25
2023-01-17T09:09:21.689Z,10.63
2023-01-17T09:12:25.387Z,8.97
2023-01-17T09:15:28.589Z,7.72
2023-01-17T09:18:34.340Z,12.30
2023-01-17T09:21:37.629Z,7.90
2023-01-17T09:24:40.746Z,8.07
2023-01-17T09:27:47.559Z,11.65
2023-01-17T09:30:51.856Z,24.45
2023-01-17T09:33:56.091Z,39.27
2023-01-17T09:36:58.981Z,20.88
2023-01-17T09:40:01.901Z,38.78
2023-01-17T09:43:15.403Z,21.13
2023-01-17T09:46:24.600Z,18.33
2023-01-17T09:49:40.651Z,14.35
2023-01-17T09:52:44.090Z,13.63
2023-01-17T09:55:55.570Z,7.55
2023-01-17T09:59:09.081Z,14.25
2023-01-17T10:02:39.947Z,26.13
2023-01-17T10:06:16.211Z,35.43
2023-01-17T10:09:31.110Z,18.60
2023-01-17T10:12:43.285Z,36.75
2023-01-17T10:15:49.273Z,81.37
2023-01-17T10:19:04.378Z,77.78
2023-01-17T10:22:26.457Z,104.13
2023-01-17T10:25:44.164Z,36.38
2023-01-17T10:28:52.166Z,29.55
2023-01-17T10:32:03.450Z,46.97
2023-01-17T10:35:21.570Z,21.08
2023-01-17T10:38:32.363Z,13.20
2023-01-17T10:41:44.299Z,8.25
2023-01-17T10:45:17.190Z,8.88
2023-01-17T10:48:45.044Z,3.63
2023-01-17T10:52:00.744Z,4.25
2023-01-17T10:55:35.120Z,7.40
2023-01-17T10:58:39.733Z,6.10
2023-01-17T11:01:43.884Z,1.67
2023-01-17T11:04:49.911Z,12.25
2023-01-17T11:08:00.345Z,91.32
2023-01-17T11:11:05.534Z,29.97
2023-01-17T11:14:29.626Z,36.95
2023-01-17T11:17:34.343Z,62.22
2023-01-17T11:20:40.427Z,36.60
2023-01-17T11:23:48.565Z,58.92
2023-01-17T11:26:52.215Z,31.23
2023-01-17T11:30:18.913Z,19.33
2023-01-17T11:33:49.627Z,26.67
2023-01-17T11:37:19.199Z,27.90
2023-01-17T11:40:30.748Z,33.13
2023-01-17T11:43:34.573Z,30.67
2023-01-17T11:46:38.740Z,51.17
2023-01-17T11:49:44.848Z,32.38
2023-01-17T11:52:48.274Z,31.73
2023-01-17T11:56:00.971Z,34.13
2023-01-17T11:59:24.818Z,23.38
2023-01-17T12:03:06.756Z,20.90
2023-01-17T12:06:33.039Z,31.58
2023-01-17T12:09:51.867Z,35.53
2023-01-17T12:13:25.415Z,28.65
2023-01-17T12:16:54.371Z,21.03
2023-01-17T12:20:10.822Z,24.77
2023-01-17T12:23:44.889Z,16.92
2023-01-17T12:27:00.531Z,31.07
2023-01-17T12:30:24.127Z,30.33
2023-01-17T12:33:49.330Z,17.27
2023-01-17T12:37:19.249Z,11.07
2023-01-17T12:40:25.663Z,31.35
2023-01-17T12:43:41.555Z,16.85
2023-01-17T12:46:50.937Z,28.52
2023-01-17T12:50:09.570Z,30.63
2023-01-17T12:53:51.961Z,49.92
2023-01-17T12:57:02.287Z,26.23
2023-01-17T13:00:13.391Z,29.13
2023-01-17T13:04:05.702Z,26.55
2023-01-17T13:07:23.802Z,18.27
2023-01-17T13:10:47.146Z,30.40
2023-01-17T13:13:52.772Z,27.23
2023-01-17T13:17:01.960Z,27.05
2023-01-17T13:20:24.257Z,18.55
2023-01-17T13:23:49.087Z,51.27
2023-01-17T13:26:52.067Z,25.73
2023-01-17T13:30:20.933Z,44.22
2023-01-17T13:34:14.473Z,36.80
2023-01-17T13:37:35.877Z,38.78
2023-01-17T13:40:55.492Z,37.63
2023-01-17T13:44:20.140Z,35.13
2023-01-17T13:47:23.793Z,75.32
2023-01-17T13:50:42.558Z,83.47
2023-01-17T13:53:47.085Z,115.43
2023-01-17T13:56:50.898Z,85.80
2023-01-17T13:59:55.322Z,93.63
2023-01-17T14:02:58.379Z,67.05
2023-01-17T14:06:01.521Z,55.80
2023-01-17T14:09:13.720Z,51.55
2023-01-17T14:12:19.456Z,43.67
2023-01-17T14:15:26.510Z,43.78
2023-01-17T14:18:44.540Z,38.33
2023-01-17T14:21:48.972Z,21.88
2023-01-17T14:25:15.535Z,10.80
2023-01-17T14:28:32.205Z,18.00
2023-01-17T14:31:35.308Z,29.20
2023-01-17T14:34:39.811Z,36.97
2023-01-17T14:37:52.524Z,48.13
2023-01-17T14:40:57.320Z,68.18
2023-01-17T14:44:01.605Z,42.75
2023-01-17T14:47:05.176Z,58.25
2023-01-17T14:50:36.517Z,87.97
2023-01-17T14:53:39.576Z,106.03
2023-01-17T14:56:42.541Z,77.70
2023-01-17T14:59:46.956Z,30.70
2023-01-17T15:02:51.243Z,27.20
2023-01-17T15:05:56.175Z,36.53
2023-01-17T15:09:01.465Z,25.33
2023-01-17T15:12:05.028Z,13.95
2023-01-17T15:15:44.839Z,18.17
2023-01-17T15:18:48.860Z,20.20
2023-01-17T15:21:54.907Z,12.00
2023-01-17T15:24:59.579Z,4.93
2023-01-17T15:28:05.159Z,12.10
2023-01-17T15:31:09.933Z,8.60
2023-01-17T15:34:26.367Z,8.07
2023-01-17T15:37:35.587Z,13.00
2023-01-17T15:40:44.159Z,13.63
2023-01-17T15:43:47.826Z,14.05
2023-01-17T15:46:51.084Z,20.08
2023-01-17T15:49:54.057Z,15.52
2023-01-17T15:53:06.157Z,14.18
2023-01-17T15:56:34.237Z,18.17
2023-01-17T15:59:45.991Z,15.25
2023-01-17T16:03:00.278Z,15.23
2023-01-17T16:06:04.992Z,16.98
2023-01-17T16:09:21.454Z,16.17
2023-01-17T16:12:24.194Z,27.77
2023-01-17T16:15:28.940Z,16.77
2023-01-17T16:18:31.759Z,14.50
2023-01-17T16:21:34.969Z,16.40
2023-01-17T16:24:37.806Z,6.75
2023-01-17T16:27:43.864Z,12.88
2023-01-17T16:30:49.321Z,10.85
2023-01-17T16:33:52.623Z,8.20
2023-01-17T16:36:55.375Z,12.63
2023-01-17T16:39:58.161Z,7.68
2023-01-17T16:43:01.636Z,11.17
2023-01-17T16:46:04.847Z,107.93
2023-01-17T16:49:07.829Z,94.22
2023-01-17T16:52:11.036Z,90.05
2023-01-17T16:55:17.013Z,89.72
2023-01-17T16:58:21.021Z,36.08
2023-01-17T17:01:25.857Z,99.50
2023-01-17T17:04:28.870Z,113.93
2023-01-17T17:07:31.726Z,57.10
2023-01-17T17:10:35.027Z,45.38
2023-01-17T17:13:38.340Z,54.37
2023-01-17T17:16:42.703Z,44.50
2023-01-17T17:19:49.051Z,46.40
2023-01-17T17:22:53.163Z,67.05
2023-01-17T17:25:57.942Z,22.33
2023-01-17T17:29:02.123Z,69.53
2023-01-17T17:32:07.593Z,31.85
2023-01-17T17:35:11.205Z,36.67
2023-01-17T17:38:14.193Z,34.55
2023-01-17T17:41:28.692Z,41.15
2023-01-17T17:44:31.649Z,38.47
2023-01-17T17:47:34.819Z,47.35
2023-01-17T17:50:37.678Z,59.17
2023-01-17T17:53:40.688Z,77.85
2023-01-17T17:56:47.138Z,47.22
2023-01-17T17:59:50.728Z,41.85
2023-01-17T18:02:53.635Z,45.85
2023-01-17T18:06:03.013Z,39.03
2023-01-17T18:09:08.289Z,35.78
2023-01-17T18:12:11.602Z,22.05
2023-01-17T18:15:15.519Z,19.43
2023-01-17T18:18:18.816Z,22.02
2023-01-17T18:21:27.410Z,23.40
2023-01-17T18:24:30.363Z,29.42
2023-01-17T18:27:33.945Z,23.88
2023-01-17T18:30:39.375Z,31.27
2023-01-17T18:33:43.066Z,32.47
2023-01-17T18:36:46.565Z,44.17
2023-01-17T18:39:49.728Z,38.83
2023-01-17T18:42:52.860Z,47.90
2023-01-17T18:45:56.007Z,30.83
2023-01-17T18:49:00.190Z,28.08
2023-01-17T18:52:03.895Z,32.60
2023-01-17T18:55:08.352Z,56.00
2023-01-17T18:58:11.307Z,29.45
2023-01-17T19:01:24.314Z,20.92
2023-01-17T19:04:29.045Z,19.02
2023-01-17T19:07:34.188Z,47.80
2023-01-17T19:10:37.010Z,44.50
2023-01-17T19:13:42.622Z,35.70
2023-01-17T19:16:48.607Z,33.47
2023-01-17T19:19:52.253Z,27.02
2023-01-17T19:22:55.980Z,42.53
2023-01-17T19:25:59.553Z,19.33
2023-01-17T19:29:07.212Z,23.42
2023-01-17T19:32:11.097Z,43.40
2023-01-17T19:35:14.899Z,33.58
2023-01-17T19:38:18.192Z,25.33
2023-01-17T19:41:27.158Z,17.33
2023-01-17T19:44:30.868Z,27.83
2023-01-17T19:47:34.380Z,24.87
2023-01-17T19:50:38.289Z,20.98
2023-01-17T19:53:42.368Z,18.20
2023-01-17T19:56:45.293Z,37.15
2023-01-17T19:59:48.773Z,18.52
2023-01-17T20:02:51.873Z,10.32
2023-01-17T20:06:00.980Z,11.73
2023-01-17T20:09:06.034Z,10.10
2023-01-17T20:12:09.079Z,11.73
2023-01-17T20:15:12.802Z,14.35
2023-01-17T20:18:16.254Z,21.33
2023-01-17T20:21:24.241Z,15.85
2023-01-17T20:24:27.883Z,29.30
2023-01-17T20:27:30.693Z,27.17
2023-01-17T20:30:35.132Z,29.98
2023-01-17T20:33:38.062Z,24.98
2023-01-17T20:36:42.582Z,42.63
2023-01-17T20:39:46.333Z,45.27
2023-01-17T20:42:49.421Z,21.50
2023-01-17T20:45:57.118Z,19.30
2023-01-17T20:49:06.008Z,15.07
2023-01-17T20:52:09.190Z,27.88
2023-01-17T20:55:12.116Z,17.02
2023-01-17T20:58:15.605Z,14.88
2023-01-17T21:01:21.316Z,9.63
2023-01-17T21:04:26.479Z,20.88
2023-01-17T21:07:29.373Z,8.48
2023-01-17T21:10:32.525Z,23.20
2023-01-17T21:13:36.666Z,34.38
2023-01-17T21:16:41.044Z,19.05
2023-01-17T21:19:44.501Z,8.07
2023-01-17T21:22:48.581Z,11.07
2023-01-17T21:25:55.920Z,4.78
2023-01-17T21:29:01.393Z,12.77
2023-01-17T21:32:05.357Z,14.07
2023-01-17T21:35:09.000Z,11.23
2023-01-17T21:38:14.332Z,13.15
2023-01-17T21:41:17.587Z,11.47
2023-01-17T21:44:23.677Z,14.30
2023-01-17T21:47:26.819Z,6.05
2023-01-17T21:50:33.632Z,17.90
2023-01-17T21:53:39.759Z,8.05
2023-01-17T21:57:01.978Z,17.30
2023-01-17T22:00:12.705Z,37.92
2023-01-17T22:03:18.185Z,10.70
2023-01-17T22:06:22.776Z,8.27
2023-01-17T22:09:26.364Z,3.22
2023-01-17T22:12:30.306Z,16.17
2023-01-17T22:15:37.038Z,7.90
2023-01-17T22:18:42.357Z,9.32
2023-01-17T22:21:45.959Z,9.60
2023-01-17T22:24:49.244Z,8.25
2023-01-17T22:27:52.255Z,6.60
2023-01-17T22:30:56.255Z,3.72
2023-01-17T22:34:02.600Z,13.95
2023-01-17T22:37:10.552Z,10.60
2023-01-17T22:40:14.034Z,8.23
2023-01-17T22:43:17.755Z,15.40
2023-01-17T22:46:26.472Z,7.70
2023-01-17T22:49:30.060Z,9.40
2023-01-17T22:52:34.203Z,11.13
2023-01-17T22:55:37.803Z,5.55
2023-01-17T22:58:45.553Z,10.43
2023-01-17T23:01:49.059Z,7.20
2023-01-17T23:04:53.207Z,7.60
2023-01-17T23:07:57.075Z,6.85
2023-01-17T23:11:19.023Z,10.20
2023-01-17T23:14:51.983Z,5.90
2023-01-17T23:18:13.937Z,12.43
2023-01-17T23:21:17.533Z,11.85
2023-01-17T23:24:21.075Z,13.87
2023-01-17T23:28:02.617Z,15.23
2023-01-17T23:31:06.965Z,19.40
2023-01-17T23:34:09.938Z,11.52
2023-01-17T23:37:13.497Z,94.13
2023-01-17T23:40:18.219Z,48.15
2023-01-17T23:43:25.160Z,37.15
2023-01-17T23:46:30.619Z,26.93
2023-01-17T23:49:34.527Z,30.48
2023-01-17T23:52:37.748Z,49.15
2023-01-17T23:55:43.216Z,33.13
2023-01-17T23:58:46.325Z,37.40
